Raleigh, NC (27603)

5:14 PM EDT en Octubre 23, 2014 (GMT -0400)
Colonial Heights | Change Station
CLOSE
Current Station
Estación meteorológica personal
Location: Raleigh, NC
Altura: 305 ft
Estaciones meteorológicas cercanas

Alt 305 ft 35.69 °N, 78.67 °W | Updated 1 minute ago

Despejado
Despejado
69.3 ° F
Sensación térmica 69.3 ° F
N
0.0
Viento Variable Viento desde Norte
Gusts 2.0 mph

Hoy
Alta -- | Baja -- ° F
--% Posibilidad de precipitaciones
Ayer
Alta -- | Baja -- ° F
Precip. -- pul
7:28 AM 6:29 PM
Creciente menguante, 0% visible
Presión 29.92 pul
Visibilidad 10.0 Millas
Nubes Despejado
Punto de rocío 47 ° F
Humedad 45%
Precipitaciones 0.00 pul
Espesor de la nieve No disponible.
UV 1 de una escala de 12
Polen 1.50 de una escala de 12
Ozono Buena
PM2.5 Buena
Flu Activity Sporadic
METAR KRDU 232051Z 33007KT 280V350 10SM CLR 21/07 A2993 RMK AO2 SLP132 T02060067 55013 $

More Conditions Fewer Conditions

Presión 29.92 pul
Visibilidad 10.0 Millas
Nubes Despejado
Punto de rocío 47 ° F
Humedad 45%
Precipitaciones 0.00 pul
Espesor de la nieve No disponible.
UV 1 de una escala de 12
Polen 1.50 de una escala de 12
Ozono Buena
PM2.5 Buena
Flu Activity Sporadic
METAR KRDU 232051Z 33007KT 280V350 10SM CLR 21/07 A2993 RMK AO2 SLP132 T02060067 55013 $

More Conditions Fewer Conditions

10-Day Weather Forecast

Almanac

Astronomía

Oct. 23, 2014 Salida Puesta
Hora real 7:28 AM EDT 6:29 PM EDT
Crepúsculo civil 7:02 AM EDT 6:55 PM EDT
Crepúsculo náutico 6:32 AM EDT 7:24 PM EDT
Crepúsculo astronómico 6:02 AM EDT 7:54 PM EDT
Luna 7:06 AM EDT 6:29 PM EDT
Horas de luz 11h 52m
Horas de luz
11h 00m
Tomorrow will be 2m 5s shorter.
Creciente menguante, 0% of the Moon is Illuminated
Hoy
Creciente menguante
Oct 23
Nueva
Oct 30
Cuarto creciente
Nov 6
Luna llena
Nov 14
Cuarto menguante

Extremos de hoy

Máximos del estado Bajos del estado

Community

WunderPhotos

Upload Photos

1,764,372 ¡fotos cargadas!

WunderBlogs® & News

By Dr. Jeff Masters
Director of Meteorology, Weather Underground
By Kari Strenfel
Meteorologist, Weather Underground
By Christopher C. Burt
Weather Historian, Weather Underground
October 23, 2014
October 23, 2014
October 23, 2014

Nearby

Calidad del aire

  Calidad del aire Índice AQ Contaminante
Ayer Buena
OZONE
Ayer Buena
PM2.5
Real Buena
OZONE
Real Buena
PM2.5
Jueves Buena
PM2.5
Jueves Buena
OZONE
Viernes Buena
PM2.5
Viernes Buena
OZONE
Sábado Moderada
PM2.5
Sábado Buena
OZONE
Domingo Buena
PM2.5
Domingo Buena
OZONE

Grosos de nieve

Estación Profundido Altura
No tenemos constancia de nieve nueva.

Actividad de terremotos

Ciudad Distance Mag. Tiempo y dato
No hay informes recientes de la actividad sísmica.
Magnitud mínima muestra es 2,5.

Temperaturas de aguas costeras

Lugar Temperatura
Sin partes meteorológicos de las estaciones

Estaciones meteorológicas cercanas